LPMAGCLA

Guest
Details From LPMA - Madeira
To GCLA - La Palma
Flight Number -
Tags generated
Created
Modified
Stats Distance 281 nm / 520 km
Max Altitude 27,900 ft / 8,504 m
Waypoints 4
Social Downloads 6
Likes 0
Share VATSIM

Download

Looking for another format? Having issues loading an existing format? Contact us
Advertisement - Login to hide

Notes

Basic altitude profile: - Ascent Rate: 250ft/min - Ascent Speed: 200kts - Cruise Altitude: 15000ft - Cruise Speed: 280kts - Descent Rate: 2000ft/min - Descent Speed: 260kts Options: - Use NATs: yes - Use PACOTS: yes - Use low airways: yes - Use high airways: yes

Route

LPMA ORTIS UN728 BRICK GCLA

ID Type Via Altitude (ft/m) Position (lat/lon) Dist (leg/tot) Name
O LPMA APT - 0 / 0 32.69770 / -16.77445 - / 0 nm Madeira
ORTIS FIX - 27,900 / 8,504 31.40696 / -16.55691 78 / 78 nm
BRICK FIX UN728 (AWY-HI) 23,500 / 7,163 29.59137 / -16.37289 109 / 187 nm
O GCLA APT - 0 / 0 28.62648 / -17.75561 92 / 280 nm La Palma

Altitude Profile

Advertisement - Login to hide

Weather


0- 5 10 15 20 25 30 35+ Temperature / °C

Clouds and Precipitation
Forecast for 2018-12-19 06:00 UTC. Updated 6 hours ago

Ground ~20,000 ft ~40,000 ft Winds

LPMA

Details ICAO LPMA (FNC)
Name Madeira/Funchal - Cristiano Ronaldo
Region Portugal
Timezone Atlantic/Madeira (UTC+0.0)
Stats Elevation 189 ft / 58 m (AMSL)
Location 32.697900° -16.774400°
Runways 1
Magnetic Variation 4.857° W

METAR

LPMA 190900Z 24003KT 210V320 9999 SCT015 BKN030 17/15 Q1026

Decode

TAF

TAF LPMA 190500Z 1906/2006 VRB05KT 9999 SCT015 PROB30 TEMPO 1906/1920 5000 RADZ BR SCT006 BKN013 BECMG 1906/1908 03012KT BECMG 1920/1923 VRB05KT

Decode

Departure Runways

ID Width Length Bearing (true/mag) Surface Threshold Overrun Markings Lighting
05 148 ft / 45 m 9,133 ft / 2,784 m 44.60° / 49.45° ASPHALT 482 ft / 147 m 0 ft / 0 m PREC-APP CENTERLINE EDGE THRESHOLD TDZ REIL-OMNI
23 148 ft / 45 m 9,133 ft / 2,784 m 224.61° / 229.46° ASPHALT 482 ft / 147 m 0 ft / 0 m PREC-APP CENTERLINE EDGE THRESHOLD TDZ REIL-OMNI

GCLA

Details ICAO GCLA (SPC)
Name La Palma
Region Canary Islands
Timezone Atlantic/Canary (UTC+0.0)
Stats Elevation 106 ft / 32 m (AMSL)
Location 28.626400° -17.755600°
Runways 1
Magnetic Variation 5.402° W

METAR

GCLA 190900Z 32007KT 9999 FEW030 18/13 Q1026

Decode

TAF

TAF GCLA 190800Z 1909/2009 32006KT CAVOK TX22/1914Z TN16/2006Z BECMG 1909/1911 03010KT BECMG 1918/1920 33006KT

Decode

Destination Runways

ID Width Length Bearing (true/mag) Surface Threshold Overrun Markings Lighting
18 148 ft / 45 m 7,225 ft / 2,202 m 179.01° / 184.41° ASPHALT 0 ft / 0 m 279 ft / 85 m UK-PREC-APP CENTERLINE EDGE THRESHOLD SALS
36 148 ft / 45 m 7,225 ft / 2,202 m 359.01° / 4.41° ASPHALT 0 ft / 0 m 243 ft / 74 m PREC-APP CENTERLINE EDGE THRESHOLD

Popular Alternatives